sensor_id;sensor_type;location;lat;lon;timestamp;temperature;humidity
44671;DHT22;48397;53.016;-2.260;2022-12-17T00:01:38;-1.50;99.90
44671;DHT22;48397;53.016;-2.260;2022-12-17T00:07:11;-1.50;99.90
44671;DHT22;48397;53.016;-2.260;2022-12-17T00:12:48;-1.50;99.90
44671;DHT22;48397;53.016;-2.260;2022-12-17T00:18:22;-1.50;99.90
44671;DHT22;48397;53.016;-2.260;2022-12-17T00:21:08;-1.50;99.90
44671;DHT22;48397;53.016;-2.260;2022-12-17T00:32:15;-1.50;99.90
44671;DHT22;48397;53.016;-2.260;2022-12-17T00:40:38;-1.50;99.90
44671;DHT22;48397;53.016;-2.260;2022-12-17T00:57:18;-1.40;99.90
44671;DHT22;48397;53.016;-2.260;2022-12-17T01:14:00;-1.30;99.90
44671;DHT22;48397;53.016;-2.260;2022-12-17T01:27:57;-1.20;99.90
44671;DHT22;48397;53.016;-2.260;2022-12-17T01:30:44;-1.30;99.90
44671;DHT22;48397;53.016;-2.260;2022-12-17T01:33:31;-1.20;99.90
44671;DHT22;48397;53.016;-2.260;2022-12-17T01:36:18;-1.30;99.90
44671;DHT22;48397;53.016;-2.260;2022-12-17T01:39:05;-0.90;99.90
44671;DHT22;48397;53.016;-2.260;2022-12-17T01:48:02;-1.30;99.90
44671;DHT22;48397;53.016;-2.260;2022-12-17T01:50:52;-1.20;99.90
44671;DHT22;48397;53.016;-2.260;2022-12-17T01:53:43;-1.20;99.90
44671;DHT22;48397;53.016;-2.260;2022-12-17T01:59:22;-1.00;99.90
44671;DHT22;48397;53.016;-2.260;2022-12-17T02:02:13;-1.00;99.90
44671;DHT22;48397;53.016;-2.260;2022-12-17T02:11:01;-0.90;99.90
44671;DHT22;48397;53.016;-2.260;2022-12-17T02:14:07;-0.90;99.90
44671;DHT22;48397;53.016;-2.260;2022-12-17T02:17:01;-0.90;99.90
44671;DHT22;48397;53.016;-2.260;2022-12-17T02:29:08;-0.80;99.90
44671;DHT22;48397;53.016;-2.260;2022-12-17T02:31:56;-0.80;99.90
44671;DHT22;48397;53.016;-2.260;2022-12-17T02:34:44;-0.90;99.90
44671;DHT22;48397;53.016;-2.260;2022-12-17T02:37:36;-0.80;99.90
44671;DHT22;48397;53.016;-2.260;2022-12-17T02:43:13;-0.90;99.90
44671;DHT22;48397;53.016;-2.260;2022-12-17T02:46:01;-0.90;99.90
44671;DHT22;48397;53.016;-2.260;2022-12-17T02:54:31;-0.90;99.90
44671;DHT22;48397;53.016;-2.260;2022-12-17T02:57:18;-0.80;99.90
44671;DHT22;48397;53.016;-2.260;2022-12-17T03:00:12;-0.80;99.90
44671;DHT22;48397;53.016;-2.260;2022-12-17T03:02:59;-0.70;99.90
44671;DHT22;48397;53.016;-2.260;2022-12-17T03:05:47;-0.80;99.90
44671;DHT22;48397;53.016;-2.260;2022-12-17T03:08:34;-0.80;99.90
44671;DHT22;48397;53.016;-2.260;2022-12-17T03:25:14;-0.80;99.90
44671;DHT22;48397;53.016;-2.260;2022-12-17T03:28:09;-0.80;99.90
44671;DHT22;48397;53.016;-2.260;2022-12-17T03:30:59;-0.90;99.90
44671;DHT22;48397;53.016;-2.260;2022-12-17T03:39:22;-1.10;99.90
44671;DHT22;48397;53.016;-2.260;2022-12-17T03:47:44;-1.30;99.90
44671;DHT22;48397;53.016;-2.260;2022-12-17T03:50:31;-1.30;99.90
44671;DHT22;48397;53.016;-2.260;2022-12-17T03:56:04;-1.40;99.90
44671;DHT22;48397;53.016;-2.260;2022-12-17T04:04:24;-1.40;99.90
44671;DHT22;48397;53.016;-2.260;2022-12-17T04:18:19;-1.30;99.90
44671;DHT22;48397;53.016;-2.260;2022-12-17T04:26:40;-1.30;99.90
44671;DHT22;48397;53.016;-2.260;2022-12-17T04:29:26;-1.30;99.90
44671;DHT22;48397;53.016;-2.260;2022-12-17T04:32:13;-1.30;99.90
44671;DHT22;48397;53.016;-2.260;2022-12-17T04:35:02;-1.30;99.90
44671;DHT22;48397;53.016;-2.260;2022-12-17T04:37:48;-1.10;99.90
44671;DHT22;48397;53.016;-2.260;2022-12-17T04:40:35;-1.00;99.90
44671;DHT22;48397;53.016;-2.260;2022-12-17T04:48:55;-0.80;99.90
44671;DHT22;48397;53.016;-2.260;2022-12-17T04:51:41;-0.80;99.90
44671;DHT22;48397;53.016;-2.260;2022-12-17T04:54:28;-0.70;99.90
44671;DHT22;48397;53.016;-2.260;2022-12-17T04:57:15;-0.60;99.90
44671;DHT22;48397;53.016;-2.260;2022-12-17T05:00:01;-0.50;99.90
44671;DHT22;48397;53.016;-2.260;2022-12-17T05:02:47;-0.50;99.90
44671;DHT22;48397;53.016;-2.260;2022-12-17T05:05:34;-0.40;99.90
44671;DHT22;48397;53.016;-2.260;2022-12-17T05:08:21;-0.40;99.90
44671;DHT22;48397;53.016;-2.260;2022-12-17T05:11:08;-0.30;99.90
44671;DHT22;48397;53.016;-2.260;2022-12-17T05:13:55;-0.20;99.90
44671;DHT22;48397;53.016;-2.260;2022-12-17T05:16:41;-0.20;99.90
44671;DHT22;48397;53.016;-2.260;2022-12-17T05:19:28;-0.10;99.90
44671;DHT22;48397;53.016;-2.260;2022-12-17T05:22:14;-0.10;99.90
44671;DHT22;48397;53.016;-2.260;2022-12-17T05:25:00;-0.10;99.90
44671;DHT22;48397;53.016;-2.260;2022-12-17T05:27:46;-0.10;99.90
44671;DHT22;48397;53.016;-2.260;2022-12-17T05:30:33;0.00;99.90
44671;DHT22;48397;53.016;-2.260;2022-12-17T05:36:06;0.10;99.90
44671;DHT22;48397;53.016;-2.260;2022-12-17T05:38:54;0.10;99.90
44671;DHT22;48397;53.016;-2.260;2022-12-17T05:47:13;0.20;99.90
44671;DHT22;48397;53.016;-2.260;2022-12-17T05:50:01;0.20;99.90
44671;DHT22;48397;53.016;-2.260;2022-12-17T05:52:48;0.20;99.90
44671;DHT22;48397;53.016;-2.260;2022-12-17T05:55:36;1.80;99.90
44671;DHT22;48397;53.016;-2.260;2022-12-17T05:58:23;0.20;99.90
44671;DHT22;48397;53.016;-2.260;2022-12-17T06:01:10;0.20;99.90
44671;DHT22;48397;53.016;-2.260;2022-12-17T06:03:56;0.10;99.90
44671;DHT22;48397;53.016;-2.260;2022-12-17T06:06:43;0.00;99.90
44671;DHT22;48397;53.016;-2.260;2022-12-17T06:09:29;1.20;99.90
44671;DHT22;48397;53.016;-2.260;2022-12-17T06:12:15;-0.20;99.90
44671;DHT22;48397;53.016;-2.260;2022-12-17T06:15:01;-0.30;99.90
44671;DHT22;48397;53.016;-2.260;2022-12-17T06:17:55;-0.40;99.90
44671;DHT22;48397;53.016;-2.260;2022-12-17T06:20:45;-0.40;99.90
44671;DHT22;48397;53.016;-2.260;2022-12-17T06:23:34;-0.50;99.90
44671;DHT22;48397;53.016;-2.260;2022-12-17T06:26:22;-0.50;99.90
44671;DHT22;48397;53.016;-2.260;2022-12-17T06:29:09;-0.50;99.90
44671;DHT22;48397;53.016;-2.260;2022-12-17T06:31:58;-0.60;99.90
44671;DHT22;48397;53.016;-2.260;2022-12-17T06:34:45;-0.70;99.90
44671;DHT22;48397;53.016;-2.260;2022-12-17T06:40:18;-0.70;99.90
44671;DHT22;48397;53.016;-2.260;2022-12-17T06:43:04;-0.80;99.90
44671;DHT22;48397;53.016;-2.260;2022-12-17T06:45:51;-0.70;99.90
44671;DHT22;48397;53.016;-2.260;2022-12-17T06:51:23;-0.80;99.90
44671;DHT22;48397;53.016;-2.260;2022-12-17T06:54:10;-0.80;99.90
44671;DHT22;48397;53.016;-2.260;2022-12-17T06:56:56;-0.70;99.90
44671;DHT22;48397;53.016;-2.260;2022-12-17T06:59:42;-0.70;99.90
44671;DHT22;48397;53.016;-2.260;2022-12-17T07:02:28;-0.70;99.90
44671;DHT22;48397;53.016;-2.260;2022-12-17T07:05:15;-0.70;99.90
44671;DHT22;48397;53.016;-2.260;2022-12-17T07:08:01;-0.70;99.90
44671;DHT22;48397;53.016;-2.260;2022-12-17T07:10:48;-0.70;99.90
44671;DHT22;48397;53.016;-2.260;2022-12-17T07:13:34;-0.60;99.90
44671;DHT22;48397;53.016;-2.260;2022-12-17T07:16:20;-0.60;99.90
44671;DHT22;48397;53.016;-2.260;2022-12-17T07:19:06;-0.60;99.90
44671;DHT22;48397;53.016;-2.260;2022-12-17T07:21:55;-0.50;99.90
44671;DHT22;48397;53.016;-2.260;2022-12-17T07:24:41;-0.50;99.90
44671;DHT22;48397;53.016;-2.260;2022-12-17T07:27:27;-0.50;99.90
44671;DHT22;48397;53.016;-2.260;2022-12-17T07:30:13;-0.50;99.90
44671;DHT22;48397;53.016;-2.260;2022-12-17T07:33:05;-0.50;99.90
44671;DHT22;48397;53.016;-2.260;2022-12-17T07:35:52;-0.50;99.90
44671;DHT22;48397;53.016;-2.260;2022-12-17T07:38:39;0.90;99.90
44671;DHT22;48397;53.016;-2.260;2022-12-17T07:41:25;-0.40;99.90
44671;DHT22;48397;53.016;-2.260;2022-12-17T07:44:11;-0.40;99.90
44671;DHT22;48397;53.016;-2.260;2022-12-17T07:46:57;-0.40;99.90
44671;DHT22;48397;53.016;-2.260;2022-12-17T07:49:44;-0.40;99.90
44671;DHT22;48397;53.016;-2.260;2022-12-17T07:52:30;-0.30;99.90
44671;DHT22;48397;53.016;-2.260;2022-12-17T07:55:16;-0.30;99.90
44671;DHT22;48397;53.016;-2.260;2022-12-17T07:58:07;-0.20;99.90
44671;DHT22;48397;53.016;-2.260;2022-12-17T08:03:41;-0.10;99.90
44671;DHT22;48397;53.016;-2.260;2022-12-17T08:06:27;0.00;99.90
44671;DHT22;48397;53.016;-2.260;2022-12-17T08:09:13;0.00;99.90
44671;DHT22;48397;53.016;-2.260;2022-12-17T08:12:00;0.10;99.90
44671;DHT22;48397;53.016;-2.260;2022-12-17T08:14:46;1.00;99.90
44671;DHT22;48397;53.016;-2.260;2022-12-17T08:17:32;1.50;99.90
44671;DHT22;48397;53.016;-2.260;2022-12-17T08:23:22;0.30;99.90
44671;DHT22;48397;53.016;-2.260;2022-12-17T08:26:08;0.30;99.90
44671;DHT22;48397;53.016;-2.260;2022-12-17T08:28:54;0.30;99.90
44671;DHT22;48397;53.016;-2.260;2022-12-17T08:31:41;0.50;99.90
44671;DHT22;48397;53.016;-2.260;2022-12-17T08:34:27;0.60;99.90
44671;DHT22;48397;53.016;-2.260;2022-12-17T08:37:13;0.60;99.90
44671;DHT22;48397;53.016;-2.260;2022-12-17T08:40:19;0.70;99.90
44671;DHT22;48397;53.016;-2.260;2022-12-17T08:43:06;0.70;99.90
44671;DHT22;48397;53.016;-2.260;2022-12-17T08:48:39;0.80;99.90
44671;DHT22;48397;53.016;-2.260;2022-12-17T08:51:24;0.70;99.90
44671;DHT22;48397;53.016;-2.260;2022-12-17T08:54:11;0.80;99.90
44671;DHT22;48397;53.016;-2.260;2022-12-17T08:56:57;0.70;99.90
44671;DHT22;48397;53.016;-2.260;2022-12-17T08:59:57;0.70;99.90
44671;DHT22;48397;53.016;-2.260;2022-12-17T09:02:44;0.80;99.90
44671;DHT22;48397;53.016;-2.260;2022-12-17T09:05:31;0.80;99.90
44671;DHT22;48397;53.016;-2.260;2022-12-17T09:08:20;0.80;99.90
44671;DHT22;48397;53.016;-2.260;2022-12-17T09:11:06;0.80;99.90
44671;DHT22;48397;53.016;-2.260;2022-12-17T09:13:52;0.90;99.90
44671;DHT22;48397;53.016;-2.260;2022-12-17T09:16:38;0.90;99.90
44671;DHT22;48397;53.016;-2.260;2022-12-17T09:19:25;0.90;99.90
44671;DHT22;48397;53.016;-2.260;2022-12-17T09:22:12;0.90;99.90
44671;DHT22;48397;53.016;-2.260;2022-12-17T09:24:59;0.90;99.90
44671;DHT22;48397;53.016;-2.260;2022-12-17T09:27:45;1.20;99.90
44671;DHT22;48397;53.016;-2.260;2022-12-17T09:30:31;0.90;99.90
44671;DHT22;48397;53.016;-2.260;2022-12-17T09:33:17;0.90;99.90
44671;DHT22;48397;53.016;-2.260;2022-12-17T09:36:04;1.00;99.90
44671;DHT22;48397;53.016;-2.260;2022-12-17T09:38:51;1.00;99.90
44671;DHT22;48397;53.016;-2.260;2022-12-17T09:50:49;1.20;99.90
44671;DHT22;48397;53.016;-2.260;2022-12-17T09:54:02;1.30;99.90
44671;DHT22;48397;53.016;-2.260;2022-12-17T09:56:49;1.30;99.90
44671;DHT22;48397;53.016;-2.260;2022-12-17T09:59:36;1.40;99.90
44671;DHT22;48397;53.016;-2.260;2022-12-17T10:02:25;1.40;99.90
44671;DHT22;48397;53.016;-2.260;2022-12-17T10:05:24;1.70;99.90
44671;DHT22;48397;53.016;-2.260;2022-12-17T10:08:14;1.60;99.90
44671;DHT22;48397;53.016;-2.260;2022-12-17T10:11:17;1.60;99.90
44671;DHT22;48397;53.016;-2.260;2022-12-17T10:14:17;1.70;99.90
44671;DHT22;48397;53.016;-2.260;2022-12-17T10:17:05;1.80;99.90
44671;DHT22;48397;53.016;-2.260;2022-12-17T10:19:55;1.90;99.90
44671;DHT22;48397;53.016;-2.260;2022-12-17T10:22:47;1.90;99.90
44671;DHT22;48397;53.016;-2.260;2022-12-17T10:25:52;2.00;99.90
44671;DHT22;48397;53.016;-2.260;2022-12-17T10:28:39;2.00;99.90
44671;DHT22;48397;53.016;-2.260;2022-12-17T10:31:29;2.00;99.90
44671;DHT22;48397;53.016;-2.260;2022-12-17T10:34:19;2.10;99.90
44671;DHT22;48397;53.016;-2.260;2022-12-17T10:37:05;2.10;99.90
44671;DHT22;48397;53.016;-2.260;2022-12-17T10:40:09;2.10;99.90
44671;DHT22;48397;53.016;-2.260;2022-12-17T10:42:59;2.10;99.90
44671;DHT22;48397;53.016;-2.260;2022-12-17T10:45:53;2.10;99.90
44671;DHT22;48397;53.016;-2.260;2022-12-17T10:48:41;5.40;99.90
44671;DHT22;48397;53.016;-2.260;2022-12-17T10:51:35;3.20;99.90
44671;DHT22;48397;53.016;-2.260;2022-12-17T10:57:37;2.10;99.90
44671;DHT22;48397;53.016;-2.260;2022-12-17T11:00:33;2.10;99.90
44671;DHT22;48397;53.016;-2.260;2022-12-17T11:03:32;2.00;99.90
44671;DHT22;48397;53.016;-2.260;2022-12-17T11:06:43;2.10;99.90
44671;DHT22;48397;53.016;-2.260;2022-12-17T11:09:47;2.10;99.90
44671;DHT22;48397;53.016;-2.260;2022-12-17T11:12:43;2.10;99.90
44671;DHT22;48397;53.016;-2.260;2022-12-17T11:15:53;2.10;99.90
44671;DHT22;48397;53.016;-2.260;2022-12-17T11:28:25;2.30;99.90
44671;DHT22;48397;53.016;-2.260;2022-12-17T11:34:53;2.50;99.90
44671;DHT22;48397;53.016;-2.260;2022-12-17T11:40:50;2.50;99.90
44671;DHT22;48397;53.016;-2.260;2022-12-17T11:51:00;2.60;99.90
44671;DHT22;48397;53.016;-2.260;2022-12-17T11:54:15;2.60;99.90
44671;DHT22;48397;53.016;-2.260;2022-12-17T12:00:15;2.70;99.90
44671;DHT22;48397;53.016;-2.260;2022-12-17T12:09:59;2.80;99.90
44671;DHT22;48397;53.016;-2.260;2022-12-17T12:19:13;2.90;99.90
44671;DHT22;48397;53.016;-2.260;2022-12-17T12:22:05;2.90;99.90
44671;DHT22;48397;53.016;-2.260;2022-12-17T12:34:26;3.10;99.90
44671;DHT22;48397;53.016;-2.260;2022-12-17T12:37:17;3.10;99.90
44671;DHT22;48397;53.016;-2.260;2022-12-17T12:40:10;3.10;99.90
44671;DHT22;48397;53.016;-2.260;2022-12-17T12:43:09;3.10;99.90
44671;DHT22;48397;53.016;-2.260;2022-12-17T12:46:18;3.10;99.90
44671;DHT22;48397;53.016;-2.260;2022-12-17T12:52:29;3.20;99.90
44671;DHT22;48397;53.016;-2.260;2022-12-17T12:55:17;3.20;99.90
44671;DHT22;48397;53.016;-2.260;2022-12-17T12:58:29;3.20;99.90
44671;DHT22;48397;53.016;-2.260;2022-12-17T13:01:17;3.20;99.90
44671;DHT22;48397;53.016;-2.260;2022-12-17T13:04:28;3.20;99.90
44671;DHT22;48397;53.016;-2.260;2022-12-17T13:07:23;3.20;99.90
44671;DHT22;48397;53.016;-2.260;2022-12-17T13:09:55;3.30;99.90
44671;DHT22;48397;53.016;-2.260;2022-12-17T13:12:52;3.30;99.90
44671;DHT22;48397;53.016;-2.260;2022-12-17T13:15:36;3.30;99.90
44671;DHT22;48397;53.016;-2.260;2022-12-17T13:18:35;3.30;99.90
44671;DHT22;48397;53.016;-2.260;2022-12-17T13:21:25;3.40;99.90
44671;DHT22;48397;53.016;-2.260;2022-12-17T13:23:53;3.40;99.90
44671;DHT22;48397;53.016;-2.260;2022-12-17T13:26:44;3.40;99.90
44671;DHT22;48397;53.016;-2.260;2022-12-17T13:29:38;3.50;99.90
44671;DHT22;48397;53.016;-2.260;2022-12-17T13:32:32;3.50;99.90
44671;DHT22;48397;53.016;-2.260;2022-12-17T13:35:22;3.50;99.90
44671;DHT22;48397;53.016;-2.260;2022-12-17T13:38:16;3.40;99.90
44671;DHT22;48397;53.016;-2.260;2022-12-17T13:40:47;3.60;99.90
44671;DHT22;48397;53.016;-2.260;2022-12-17T13:43:25;3.60;99.90
44671;DHT22;48397;53.016;-2.260;2022-12-17T13:45:56;3.60;99.90
44671;DHT22;48397;53.016;-2.260;2022-12-17T13:48:25;6.10;99.90
44671;DHT22;48397;53.016;-2.260;2022-12-17T13:51:02;3.50;99.90
44671;DHT22;48397;53.016;-2.260;2022-12-17T13:53:31;3.50;99.90
44671;DHT22;48397;53.016;-2.260;2022-12-17T13:56:02;3.40;99.90
44671;DHT22;48397;53.016;-2.260;2022-12-17T13:58:31;3.40;99.90
44671;DHT22;48397;53.016;-2.260;2022-12-17T14:01:08;3.40;99.90
44671;DHT22;48397;53.016;-2.260;2022-12-17T14:03:37;3.40;99.90
44671;DHT22;48397;53.016;-2.260;2022-12-17T14:06:33;3.40;99.90
44671;DHT22;48397;53.016;-2.260;2022-12-17T14:09:01;3.40;99.90
44671;DHT22;48397;53.016;-2.260;2022-12-17T14:11:30;3.40;99.90
44671;DHT22;48397;53.016;-2.260;2022-12-17T14:14:39;3.40;99.90
44671;DHT22;48397;53.016;-2.260;2022-12-17T14:17:22;3.40;99.90
44671;DHT22;48397;53.016;-2.260;2022-12-17T14:20:04;3.40;99.90
44671;DHT22;48397;53.016;-2.260;2022-12-17T14:22:35;3.40;99.90
44671;DHT22;48397;53.016;-2.260;2022-12-17T14:25:09;3.40;99.90
44671;DHT22;48397;53.016;-2.260;2022-12-17T14:27:51;3.40;99.90
44671;DHT22;48397;53.016;-2.260;2022-12-17T14:33:34;3.60;99.90
44671;DHT22;48397;53.016;-2.260;2022-12-17T14:38:54;3.60;99.90
44671;DHT22;48397;53.016;-2.260;2022-12-17T14:41:25;3.70;99.90
44671;DHT22;48397;53.016;-2.260;2022-12-17T14:44:18;3.70;99.90
44671;DHT22;48397;53.016;-2.260;2022-12-17T14:46:48;3.70;99.90
44671;DHT22;48397;53.016;-2.260;2022-12-17T14:49:19;3.70;99.90
44671;DHT22;48397;53.016;-2.260;2022-12-17T14:51:48;3.70;99.90
44671;DHT22;48397;53.016;-2.260;2022-12-17T14:56:53;3.70;99.90
44671;DHT22;48397;53.016;-2.260;2022-12-17T14:59:35;3.60;99.90
44671;DHT22;48397;53.016;-2.260;2022-12-17T15:04:41;3.60;99.90
44671;DHT22;48397;53.016;-2.260;2022-12-17T15:07:13;3.60;99.90
44671;DHT22;48397;53.016;-2.260;2022-12-17T15:09:44;3.50;99.90
44671;DHT22;48397;53.016;-2.260;2022-12-17T15:12:13;3.50;99.90
44671;DHT22;48397;53.016;-2.260;2022-12-17T15:14:41;3.50;99.90
44671;DHT22;48397;53.016;-2.260;2022-12-17T15:17:08;3.70;99.90
44671;DHT22;48397;53.016;-2.260;2022-12-17T15:19:37;3.50;99.90
44671;DHT22;48397;53.016;-2.260;2022-12-17T15:22:05;3.50;99.90
44671;DHT22;48397;53.016;-2.260;2022-12-17T15:24:35;3.60;99.90
44671;DHT22;48397;53.016;-2.260;2022-12-17T15:28:03;3.50;99.90
44671;DHT22;48397;53.016;-2.260;2022-12-17T15:31:14;3.50;99.90
44671;DHT22;48397;53.016;-2.260;2022-12-17T15:33:50;3.50;99.90
44671;DHT22;48397;53.016;-2.260;2022-12-17T15:36:21;3.80;99.90
44671;DHT22;48397;53.016;-2.260;2022-12-17T15:38:50;3.50;99.90
44671;DHT22;48397;53.016;-2.260;2022-12-17T15:41:19;3.50;99.90
44671;DHT22;48397;53.016;-2.260;2022-12-17T15:44:06;3.50;99.90
44671;DHT22;48397;53.016;-2.260;2022-12-17T15:46:34;3.50;99.90
44671;DHT22;48397;53.016;-2.260;2022-12-17T15:49:02;3.50;99.90
44671;DHT22;48397;53.016;-2.260;2022-12-17T15:51:31;3.50;99.90
44671;DHT22;48397;53.016;-2.260;2022-12-17T15:53:58;3.50;99.90
44671;DHT22;48397;53.016;-2.260;2022-12-17T15:56:27;3.40;99.90
44671;DHT22;48397;53.016;-2.260;2022-12-17T15:58:57;3.50;99.90
44671;DHT22;48397;53.016;-2.260;2022-12-17T16:01:25;3.50;99.90
44671;DHT22;48397;53.016;-2.260;2022-12-17T16:03:53;3.50;99.90
44671;DHT22;48397;53.016;-2.260;2022-12-17T16:08:50;3.40;99.90
44671;DHT22;48397;53.016;-2.260;2022-12-17T16:11:20;3.50;99.90
44671;DHT22;48397;53.016;-2.260;2022-12-17T16:13:52;3.40;99.90
44671;DHT22;48397;53.016;-2.260;2022-12-17T16:16:22;3.40;99.90
44671;DHT22;48397;53.016;-2.260;2022-12-17T16:18:51;3.50;99.90
44671;DHT22;48397;53.016;-2.260;2022-12-17T16:21:18;3.40;99.90
44671;DHT22;48397;53.016;-2.260;2022-12-17T16:23:46;3.40;99.90
44671;DHT22;48397;53.016;-2.260;2022-12-17T16:26:14;6.20;99.90
44671;DHT22;48397;53.016;-2.260;2022-12-17T16:28:43;3.30;99.90
44671;DHT22;48397;53.016;-2.260;2022-12-17T16:31:13;3.30;99.90
44671;DHT22;48397;53.016;-2.260;2022-12-17T16:33:42;3.20;99.90
44671;DHT22;48397;53.016;-2.260;2022-12-17T16:36:12;3.20;99.90
44671;DHT22;48397;53.016;-2.260;2022-12-17T16:38:45;3.20;99.90
44671;DHT22;48397;53.016;-2.260;2022-12-17T16:41:14;3.20;99.90
44671;DHT22;48397;53.016;-2.260;2022-12-17T16:43:42;3.20;99.90
44671;DHT22;48397;53.016;-2.260;2022-12-17T16:46:29;3.20;99.90
44671;DHT22;48397;53.016;-2.260;2022-12-17T16:49:05;3.10;99.90
44671;DHT22;48397;53.016;-2.260;2022-12-17T16:51:34;3.10;99.90
44671;DHT22;48397;53.016;-2.260;2022-12-17T16:54:04;4.10;99.90
44671;DHT22;48397;53.016;-2.260;2022-12-17T16:56:33;3.10;99.90
44671;DHT22;48397;53.016;-2.260;2022-12-17T16:59:07;3.10;99.90
44671;DHT22;48397;53.016;-2.260;2022-12-17T17:01:36;3.10;99.90
44671;DHT22;48397;53.016;-2.260;2022-12-17T17:04:05;3.10;99.90
44671;DHT22;48397;53.016;-2.260;2022-12-17T17:06:49;3.10;99.90
44671;DHT22;48397;53.016;-2.260;2022-12-17T17:09:18;3.10;99.90
44671;DHT22;48397;53.016;-2.260;2022-12-17T17:11:46;3.00;99.90
44671;DHT22;48397;53.016;-2.260;2022-12-17T17:14:18;3.00;99.90
44671;DHT22;48397;53.016;-2.260;2022-12-17T17:16:46;3.00;99.90
44671;DHT22;48397;53.016;-2.260;2022-12-17T17:19:13;3.00;99.90
44671;DHT22;48397;53.016;-2.260;2022-12-17T17:21:50;3.80;99.90
44671;DHT22;48397;53.016;-2.260;2022-12-17T17:24:20;2.90;99.90
44671;DHT22;48397;53.016;-2.260;2022-12-17T17:26:50;3.60;99.90
44671;DHT22;48397;53.016;-2.260;2022-12-17T17:29:18;2.90;99.90
44671;DHT22;48397;53.016;-2.260;2022-12-17T17:31:46;4.00;99.90
44671;DHT22;48397;53.016;-2.260;2022-12-17T17:34:34;2.90;99.90
44671;DHT22;48397;53.016;-2.260;2022-12-17T17:37:03;2.80;99.90
44671;DHT22;48397;53.016;-2.260;2022-12-17T17:39:32;2.90;99.90
44671;DHT22;48397;53.016;-2.260;2022-12-17T17:42:01;2.80;99.90
44671;DHT22;48397;53.016;-2.260;2022-12-17T17:44:28;3.10;99.90
44671;DHT22;48397;53.016;-2.260;2022-12-17T17:46:56;2.80;99.90
44671;DHT22;48397;53.016;-2.260;2022-12-17T17:49:24;2.80;99.90
44671;DHT22;48397;53.016;-2.260;2022-12-17T17:51:52;2.80;99.90
44671;DHT22;48397;53.016;-2.260;2022-12-17T17:54:38;2.80;99.90
44671;DHT22;48397;53.016;-2.260;2022-12-17T17:57:07;2.90;99.90
44671;DHT22;48397;53.016;-2.260;2022-12-17T17:59:36;2.90;99.90
44671;DHT22;48397;53.016;-2.260;2022-12-17T18:02:06;2.90;99.90
44671;DHT22;48397;53.016;-2.260;2022-12-17T18:04:36;2.90;99.90
44671;DHT22;48397;53.016;-2.260;2022-12-17T18:07:04;4.40;99.90
44671;DHT22;48397;53.016;-2.260;2022-12-17T18:09:51;3.00;99.90
44671;DHT22;48397;53.016;-2.260;2022-12-17T18:12:21;3.00;99.90
44671;DHT22;48397;53.016;-2.260;2022-12-17T18:15:08;3.00;99.90
44671;DHT22;48397;53.016;-2.260;2022-12-17T18:17:44;3.00;99.90
44671;DHT22;48397;53.016;-2.260;2022-12-17T18:20:12;3.00;99.90
44671;DHT22;48397;53.016;-2.260;2022-12-17T18:22:41;3.00;99.90
44671;DHT22;48397;53.016;-2.260;2022-12-17T18:25:09;3.20;99.90
44671;DHT22;48397;53.016;-2.260;2022-12-17T18:27:37;3.00;99.90
44671;DHT22;48397;53.016;-2.260;2022-12-17T18:30:08;3.00;99.90
44671;DHT22;48397;53.016;-2.260;2022-12-17T18:32:36;3.00;99.90
44671;DHT22;48397;53.016;-2.260;2022-12-17T18:35:04;3.00;99.90
44671;DHT22;48397;53.016;-2.260;2022-12-17T18:37:32;3.00;99.90
44671;DHT22;48397;53.016;-2.260;2022-12-17T18:39:59;3.00;99.90
44671;DHT22;48397;53.016;-2.260;2022-12-17T18:42:28;2.90;99.90
44671;DHT22;48397;53.016;-2.260;2022-12-17T18:45:14;2.90;99.90
44671;DHT22;48397;53.016;-2.260;2022-12-17T18:47:43;2.90;99.90
44671;DHT22;48397;53.016;-2.260;2022-12-17T18:50:12;2.90;99.90
44671;DHT22;48397;53.016;-2.260;2022-12-17T18:52:40;2.80;99.90
44671;DHT22;48397;53.016;-2.260;2022-12-17T18:55:08;2.80;99.90
44671;DHT22;48397;53.016;-2.260;2022-12-17T18:57:36;2.90;99.90
44671;DHT22;48397;53.016;-2.260;2022-12-17T19:00:04;2.90;99.90
44671;DHT22;48397;53.016;-2.260;2022-12-17T19:02:32;5.90;99.90
44671;DHT22;48397;53.016;-2.260;2022-12-17T19:05:00;2.90;99.90
44671;DHT22;48397;53.016;-2.260;2022-12-17T19:07:28;2.80;99.90
44671;DHT22;48397;53.016;-2.260;2022-12-17T19:09:56;2.80;99.90
44671;DHT22;48397;53.016;-2.260;2022-12-17T19:14:52;2.80;99.90
44671;DHT22;48397;53.016;-2.260;2022-12-17T19:17:19;2.60;99.90
44671;DHT22;48397;53.016;-2.260;2022-12-17T19:19:47;2.60;99.90
44671;DHT22;48397;53.016;-2.260;2022-12-17T19:22:15;2.50;99.90
44671;DHT22;48397;53.016;-2.260;2022-12-17T19:24:43;2.50;99.90
44671;DHT22;48397;53.016;-2.260;2022-12-17T19:27:10;2.50;99.90
44671;DHT22;48397;53.016;-2.260;2022-12-17T19:29:38;2.50;99.90
44671;DHT22;48397;53.016;-2.260;2022-12-17T19:32:11;2.40;99.90
44671;DHT22;48397;53.016;-2.260;2022-12-17T19:34:39;2.50;99.90
44671;DHT22;48397;53.016;-2.260;2022-12-17T19:37:08;1.40;99.90
44671;DHT22;48397;53.016;-2.260;2022-12-17T19:39:35;2.30;99.90
44671;DHT22;48397;53.016;-2.260;2022-12-17T19:42:03;2.50;99.90
44671;DHT22;48397;53.016;-2.260;2022-12-17T19:44:31;2.50;99.90
44671;DHT22;48397;53.016;-2.260;2022-12-17T19:47:01;2.40;99.90
44671;DHT22;48397;53.016;-2.260;2022-12-17T19:49:29;2.40;99.90
44671;DHT22;48397;53.016;-2.260;2022-12-17T19:51:58;2.40;99.90
44671;DHT22;48397;53.016;-2.260;2022-12-17T19:54:26;2.40;99.90
44671;DHT22;48397;53.016;-2.260;2022-12-17T19:56:54;3.00;99.90
44671;DHT22;48397;53.016;-2.260;2022-12-17T19:59:22;2.40;99.90
44671;DHT22;48397;53.016;-2.260;2022-12-17T20:01:49;2.30;99.90
44671;DHT22;48397;53.016;-2.260;2022-12-17T20:04:18;2.30;99.90
44671;DHT22;48397;53.016;-2.260;2022-12-17T20:06:46;2.30;99.90
44671;DHT22;48397;53.016;-2.260;2022-12-17T20:09:14;2.40;99.90
44671;DHT22;48397;53.016;-2.260;2022-12-17T20:11:44;3.30;99.90
44671;DHT22;48397;53.016;-2.260;2022-12-17T20:14:17;2.60;99.90
44671;DHT22;48397;53.016;-2.260;2022-12-17T20:16:49;2.30;99.90
44671;DHT22;48397;53.016;-2.260;2022-12-17T20:19:24;2.30;99.90
44671;DHT22;48397;53.016;-2.260;2022-12-17T20:21:52;2.20;99.90
44671;DHT22;48397;53.016;-2.260;2022-12-17T20:24:21;2.90;99.90
44671;DHT22;48397;53.016;-2.260;2022-12-17T20:26:58;1.90;99.90
44671;DHT22;48397;53.016;-2.260;2022-12-17T20:29:26;1.80;99.90
44671;DHT22;48397;53.016;-2.260;2022-12-17T20:31:54;1.70;99.90
44671;DHT22;48397;53.016;-2.260;2022-12-17T20:34:23;1.70;99.90
44671;DHT22;48397;53.016;-2.260;2022-12-17T20:36:51;1.60;99.90
44671;DHT22;48397;53.016;-2.260;2022-12-17T20:39:19;1.70;99.90
44671;DHT22;48397;53.016;-2.260;2022-12-17T20:41:55;1.70;99.90
44671;DHT22;48397;53.016;-2.260;2022-12-17T20:44:23;1.70;99.90
44671;DHT22;48397;53.016;-2.260;2022-12-17T20:46:51;1.80;99.90
44671;DHT22;48397;53.016;-2.260;2022-12-17T20:49:18;1.80;99.90
44671;DHT22;48397;53.016;-2.260;2022-12-17T20:51:46;1.80;99.90
44671;DHT22;48397;53.016;-2.260;2022-12-17T20:54:14;1.90;99.90
44671;DHT22;48397;53.016;-2.260;2022-12-17T20:56:43;1.90;99.90
44671;DHT22;48397;53.016;-2.260;2022-12-17T20:59:14;1.90;99.90
44671;DHT22;48397;53.016;-2.260;2022-12-17T21:01:42;1.90;99.90
44671;DHT22;48397;53.016;-2.260;2022-12-17T21:04:12;1.80;99.90
44671;DHT22;48397;53.016;-2.260;2022-12-17T21:06:42;1.70;99.90
44671;DHT22;48397;53.016;-2.260;2022-12-17T21:09:12;1.70;99.90